NOZ391 ENSB-ENGM
Flight info
| Callsign | NOZ391 |
|---|---|
| Flight time | 2h 39m |
| Altitude | 35000 |
| Route | AMPIS DCT LIPSA/N0458F370 DCT SOMUB DCT ABUNO DCT INREX |
| Aircraft | B738/M-SDE2E3FGHIRWXY/LB1 |
Departure
| Time | 2026-05-05 14:06 |
|---|---|
| Airport | Svalbard Airport, Longyear (ENSB) |
Arrival
| Time | 2026-05-05 16:45 |
|---|---|
| Airport | Oslo-Gardermoen International Airport (ENGM) |
| Time | Latitude | Longitude | Altitude | Speed | Heading |
|---|---|---|---|---|---|
| 2026-05-05 13:43 | 78.24612 | 15.49594 | 87 ft | 0 kts | 105° |
| 2026-05-05 13:56 | 78.24610 | 15.49619 | 91 ft | 2 kts | 109° |
| 2026-05-05 13:57 | 78.24591 | 15.49673 | 88 ft | 4 kts | 188° |
| 2026-05-05 13:57 | 78.24558 | 15.49584 | 88 ft | 0 kts | 208° |
| 2026-05-05 13:57 | 78.24542 | 15.49542 | 87 ft | 5 kts | 206° |
| 2026-05-05 13:57 | 78.24493 | 15.49457 | 87 ft | 10 kts | 198° |
| 2026-05-05 13:58 | 78.24471 | 15.49116 | 88 ft | 13 kts | 283° |
| 2026-05-05 13:58 | 78.24500 | 15.48612 | 87 ft | 17 kts | 285° |
| 2026-05-05 13:58 | 78.24535 | 15.47984 | 90 ft | 21 kts | 285° |
| 2026-05-05 13:58 | 78.24576 | 15.47245 | 88 ft | 24 kts | 285° |
| 2026-05-05 13:59 | 78.24621 | 15.46398 | 90 ft | 0 kts | 285° |
| 2026-05-05 14:02 | 78.24622 | 15.46386 | 87 ft | 1 kts | 285° |
| 2026-05-05 14:02 | 78.24630 | 15.46246 | 88 ft | 8 kts | 285° |
| 2026-05-05 14:02 | 78.24643 | 15.46002 | 89 ft | 14 kts | 285° |
| 2026-05-05 14:03 | 78.24678 | 15.45417 | 91 ft | 22 kts | 286° |
| 2026-05-05 14:03 | 78.24722 | 15.44589 | 90 ft | 28 kts | 284° |
| 2026-05-05 14:03 | 78.24776 | 15.43641 | 88 ft | 27 kts | 286° |
| 2026-05-05 14:03 | 78.24824 | 15.42785 | 90 ft | 26 kts | 284° |
| 2026-05-05 14:04 | 78.24868 | 15.41971 | 88 ft | 22 kts | 285° |
| 2026-05-05 14:04 | 78.24907 | 15.41375 | 88 ft | 14 kts | 300° |
| 2026-05-05 14:04 | 78.24922 | 15.41200 | 91 ft | 2 kts | 221° |
| 2026-05-05 14:04 | 78.24911 | 15.41235 | 91 ft | 2 kts | 127° |
| 2026-05-05 14:05 | 78.24904 | 15.41345 | 88 ft | 7 kts | 105° |
| 2026-05-05 14:05 | 78.24833 | 15.42607 | 88 ft | 77 kts | 105° |
| 2026-05-05 14:05 | 78.24629 | 15.46280 | 89 ft | 144 kts | 103° |
| 2026-05-05 14:05 | 78.24355 | 15.51426 | 627 ft | 160 kts | 102° |
| 2026-05-05 14:06 | 78.24037 | 15.56794 | 1437 ft | 171 kts | 102° |
| 2026-05-05 14:06 | 78.23711 | 15.62833 | 1988 ft | 188 kts | 99° |
| 2026-05-05 14:06 | 78.23333 | 15.69052 | 2597 ft | 201 kts | 112° |
| 2026-05-05 14:06 | 78.22465 | 15.74928 | 2851 ft | 229 kts | 122° |
| 2026-05-05 14:07 | 78.21470 | 15.81422 | 3394 ft | 244 kts | 120° |
| 2026-05-05 14:07 | 78.20462 | 15.88111 | 4309 ft | 245 kts | 120° |
| 2026-05-05 14:07 | 78.19446 | 15.94863 | 5248 ft | 247 kts | 120° |
| 2026-05-05 14:07 | 78.18421 | 16.01692 | 6082 ft | 251 kts | 120° |
| 2026-05-05 14:08 | 78.17411 | 16.08676 | 6912 ft | 253 kts | 117° |
| 2026-05-05 14:08 | 78.16464 | 16.15969 | 7727 ft | 256 kts | 117° |
| 2026-05-05 14:08 | 78.15521 | 16.23396 | 8532 ft | 260 kts | 117° |
| 2026-05-05 14:08 | 78.14532 | 16.30843 | 9301 ft | 266 kts | 125° |
| 2026-05-05 14:09 | 78.12968 | 16.36020 | 9948 ft | 285 kts | 159° |
| 2026-05-05 14:09 | 78.10973 | 16.37365 | 10577 ft | 299 kts | 178° |
| 2026-05-05 14:09 | 78.08814 | 16.36508 | 10787 ft | 323 kts | 183° |
| 2026-05-05 14:09 | 78.06504 | 16.35137 | 11034 ft | 344 kts | 184° |
| 2026-05-05 14:10 | 78.04094 | 16.33622 | 11587 ft | 353 kts | 185° |
| 2026-05-05 14:10 | 78.01648 | 16.32094 | 12320 ft | 357 kts | 185° |
| 2026-05-05 14:10 | 77.99174 | 16.30563 | 13046 ft | 361 kts | 185° |
| 2026-05-05 14:10 | 77.96668 | 16.29052 | 13771 ft | 365 kts | 185° |
| 2026-05-05 14:11 | 77.94135 | 16.27563 | 14440 ft | 369 kts | 184° |
| 2026-05-05 14:11 | 77.91570 | 16.26086 | 15062 ft | 372 kts | 185° |
| 2026-05-05 14:11 | 77.88986 | 16.24579 | 15705 ft | 377 kts | 184° |
| 2026-05-05 14:11 | 77.86370 | 16.23119 | 16349 ft | 380 kts | 184° |
| 2026-05-05 14:12 | 77.83725 | 16.21668 | 16956 ft | 385 kts | 184° |
| 2026-05-05 14:12 | 77.81051 | 16.20210 | 17583 ft | 389 kts | 184° |
| 2026-05-05 14:12 | 77.78351 | 16.18743 | 18207 ft | 393 kts | 184° |
| 2026-05-05 14:12 | 77.75622 | 16.17264 | 18779 ft | 396 kts | 184° |
| 2026-05-05 14:13 | 77.72878 | 16.15781 | 19373 ft | 398 kts | 184° |
| 2026-05-05 14:13 | 77.70123 | 16.14295 | 19981 ft | 399 kts | 184° |
| 2026-05-05 14:13 | 77.67353 | 16.12807 | 20557 ft | 402 kts | 184° |
| 2026-05-05 14:13 | 77.64569 | 16.11318 | 21107 ft | 404 kts | 184° |
| 2026-05-05 14:14 | 77.61766 | 16.09826 | 21638 ft | 407 kts | 184° |
| 2026-05-05 14:14 | 77.58950 | 16.08334 | 22181 ft | 409 kts | 184° |
| 2026-05-05 14:14 | 77.56115 | 16.06839 | 22707 ft | 411 kts | 184° |
| 2026-05-05 14:14 | 77.53268 | 16.05345 | 23230 ft | 413 kts | 184° |
| 2026-05-05 14:15 | 77.50401 | 16.03847 | 23731 ft | 416 kts | 184° |
| 2026-05-05 14:15 | 77.47517 | 16.02347 | 24138 ft | 419 kts | 184° |
| 2026-05-05 14:15 | 77.44608 | 16.00841 | 24509 ft | 422 kts | 184° |
| 2026-05-05 14:15 | 77.41685 | 15.99336 | 24910 ft | 424 kts | 184° |
| 2026-05-05 14:16 | 77.38744 | 15.97827 | 25334 ft | 426 kts | 185° |
| 2026-05-05 14:16 | 77.35791 | 15.96318 | 25711 ft | 429 kts | 184° |
| 2026-05-05 14:16 | 77.32813 | 15.94805 | 26038 ft | 432 kts | 184° |
| 2026-05-05 14:16 | 77.29812 | 15.93289 | 26388 ft | 435 kts | 184° |
| 2026-05-05 14:17 | 77.26793 | 15.91773 | 26763 ft | 437 kts | 184° |
| 2026-05-05 14:17 | 77.23766 | 15.90251 | 27109 ft | 440 kts | 185° |
| 2026-05-05 14:17 | 77.20717 | 15.88727 | 27468 ft | 442 kts | 184° |
| 2026-05-05 14:17 | 77.17655 | 15.87225 | 27777 ft | 444 kts | 184° |
| 2026-05-05 14:18 | 77.14571 | 15.85704 | 28094 ft | 447 kts | 184° |
| 2026-05-05 14:18 | 77.11471 | 15.84173 | 28405 ft | 450 kts | 184° |
| 2026-05-05 14:18 | 77.08353 | 15.82639 | 28656 ft | 453 kts | 184° |
| 2026-05-05 14:18 | 77.05209 | 15.81106 | 28955 ft | 455 kts | 184° |
| 2026-05-05 14:19 | 77.02108 | 15.79616 | 29335 ft | 455 kts | 184° |
| 2026-05-05 14:19 | 76.98941 | 15.78088 | 29510 ft | 460 kts | 184° |
| 2026-05-05 14:19 | 76.95754 | 15.76552 | 29756 ft | 462 kts | 184° |
| 2026-05-05 14:19 | 76.92563 | 15.75022 | 30258 ft | 459 kts | 185° |
| 2026-05-05 14:20 | 76.89400 | 15.73512 | 30639 ft | 457 kts | 184° |
| 2026-05-05 14:20 | 76.86230 | 15.72009 | 30856 ft | 459 kts | 184° |
| 2026-05-05 14:20 | 76.83055 | 15.70504 | 31061 ft | 461 kts | 184° |
| 2026-05-05 14:20 | 76.79873 | 15.69005 | 31409 ft | 459 kts | 184° |
| 2026-05-05 14:21 | 76.76681 | 15.67517 | 31535 ft | 463 kts | 184° |
| 2026-05-05 14:21 | 76.73488 | 15.66038 | 31942 ft | 460 kts | 183° |
| 2026-05-05 14:21 | 76.70308 | 15.64571 | 32226 ft | 460 kts | 184° |
| 2026-05-05 14:21 | 76.67114 | 15.63104 | 32394 ft | 462 kts | 183° |
| 2026-05-05 14:22 | 76.63914 | 15.61642 | 32682 ft | 462 kts | 185° |
| 2026-05-05 14:22 | 76.60709 | 15.60179 | 32833 ft | 465 kts | 184° |
| 2026-05-05 14:22 | 76.57491 | 15.58719 | 33160 ft | 463 kts | 184° |
| 2026-05-05 14:22 | 76.54297 | 15.57275 | 33483 ft | 461 kts | 185° |
| 2026-05-05 14:23 | 76.51104 | 15.55848 | 33793 ft | 461 kts | 185° |
| 2026-05-05 14:23 | 76.47910 | 15.54427 | 33962 ft | 462 kts | 185° |
| 2026-05-05 14:23 | 76.44703 | 15.53005 | 34162 ft | 463 kts | 184° |
| 2026-05-05 14:23 | 76.41499 | 15.51587 | 34335 ft | 464 kts | 185° |
| 2026-05-05 14:24 | 76.38290 | 15.50180 | 34599 ft | 462 kts | 185° |
| 2026-05-05 14:24 | 76.35104 | 15.48780 | 34899 ft | 459 kts | 185° |
| 2026-05-05 14:24 | 76.31921 | 15.47381 | 35029 ft | 460 kts | 185° |
| 2026-05-05 14:24 | 76.28743 | 15.45996 | 35039 ft | 459 kts | 184° |
| 2026-05-05 14:25 | 76.22347 | 15.43224 | 35079 ft | 466 kts | 184° |
| 2026-05-05 14:25 | 76.15879 | 15.40453 | 35062 ft | 469 kts | 184° |
| 2026-05-05 14:26 | 76.09377 | 15.37694 | 35060 ft | 471 kts | 184° |
| 2026-05-05 14:26 | 76.02874 | 15.34971 | 35070 ft | 467 kts | 185° |
| 2026-05-05 14:27 | 75.96447 | 15.32297 | 35060 ft | 462 kts | 184° |
| 2026-05-05 14:27 | 75.90058 | 15.29661 | 35063 ft | 461 kts | 184° |
| 2026-05-05 14:28 | 75.83656 | 15.27047 | 35059 ft | 463 kts | 184° |
| 2026-05-05 14:28 | 75.77259 | 15.24454 | 35038 ft | 467 kts | 184° |
| 2026-05-05 14:29 | 75.70741 | 15.21834 | 35029 ft | 468 kts | 185° |
| 2026-05-05 14:29 | 75.64293 | 15.19264 | 35029 ft | 469 kts | 185° |
| 2026-05-05 14:30 | 75.57812 | 15.16700 | 35019 ft | 467 kts | 184° |
| 2026-05-05 14:30 | 75.51360 | 15.14184 | 35029 ft | 465 kts | 185° |
| 2026-05-05 14:31 | 75.44936 | 15.11701 | 35018 ft | 463 kts | 184° |
| 2026-05-05 14:31 | 75.38528 | 15.09243 | 35006 ft | 462 kts | 184° |
| 2026-05-05 14:32 | 75.32124 | 15.06803 | 35012 ft | 463 kts | 184° |
| 2026-05-05 14:32 | 75.25693 | 15.04370 | 35005 ft | 466 kts | 184° |
| 2026-05-05 14:33 | 75.19225 | 15.01953 | 35016 ft | 468 kts | 184° |
| 2026-05-05 14:33 | 75.12732 | 14.99542 | 34992 ft | 469 kts | 184° |
| 2026-05-05 14:34 | 75.06237 | 14.97144 | 35009 ft | 468 kts | 184° |
| 2026-05-05 14:34 | 74.99764 | 14.94779 | 34993 ft | 466 kts | 185° |
| 2026-05-05 14:35 | 74.93320 | 14.92449 | 34987 ft | 465 kts | 184° |
| 2026-05-05 14:35 | 74.86886 | 14.90146 | 34972 ft | 464 kts | 184° |
| 2026-05-05 14:36 | 74.80469 | 14.87863 | 34974 ft | 463 kts | 184° |
| 2026-05-05 14:36 | 74.74031 | 14.85591 | 34977 ft | 467 kts | 184° |
| 2026-05-05 14:37 | 74.67548 | 14.83314 | 34976 ft | 468 kts | 184° |
| 2026-05-05 14:37 | 74.61062 | 14.81053 | 34983 ft | 468 kts | 184° |
| 2026-05-05 14:38 | 74.54574 | 14.78817 | 34976 ft | 469 kts | 184° |
| 2026-05-05 14:38 | 74.48075 | 14.76601 | 34959 ft | 469 kts | 184° |
| 2026-05-05 14:39 | 74.41581 | 14.74402 | 34957 ft | 468 kts | 184° |
| 2026-05-05 14:39 | 74.35141 | 14.72241 | 34966 ft | 467 kts | 184° |
| 2026-05-05 14:40 | 74.28671 | 14.70090 | 34967 ft | 466 kts | 184° |
| 2026-05-05 14:40 | 74.22212 | 14.67954 | 34963 ft | 466 kts | 184° |
| 2026-05-05 14:41 | 74.15756 | 14.65837 | 34973 ft | 465 kts | 184° |
| 2026-05-05 14:41 | 74.09305 | 14.63732 | 34945 ft | 466 kts | 184° |
| 2026-05-05 14:42 | 74.02845 | 14.61645 | 34939 ft | 466 kts | 184° |
| 2026-05-05 14:42 | 73.96381 | 14.59578 | 34923 ft | 467 kts | 184° |
| 2026-05-05 14:43 | 73.89910 | 14.57528 | 34930 ft | 467 kts | 184° |
| 2026-05-05 14:43 | 73.83436 | 14.55498 | 34943 ft | 467 kts | 184° |
| 2026-05-05 14:44 | 73.76966 | 14.53471 | 34938 ft | 467 kts | 183° |
| 2026-05-05 14:44 | 73.70492 | 14.51456 | 34924 ft | 467 kts | 183° |
| 2026-05-05 14:45 | 73.64022 | 14.49464 | 34937 ft | 466 kts | 183° |
| 2026-05-05 14:45 | 73.57558 | 14.47476 | 34916 ft | 466 kts | 183° |
| 2026-05-05 14:46 | 73.51104 | 14.45518 | 34927 ft | 465 kts | 184° |
| 2026-05-05 14:46 | 73.44663 | 14.43580 | 34925 ft | 464 kts | 183° |
| 2026-05-05 14:47 | 73.38225 | 14.41662 | 34918 ft | 463 kts | 184° |
| 2026-05-05 14:47 | 73.31804 | 14.39763 | 34919 ft | 463 kts | 184° |
| 2026-05-05 14:48 | 73.25390 | 14.37877 | 34888 ft | 463 kts | 183° |
| 2026-05-05 14:48 | 73.18968 | 14.35999 | 34900 ft | 463 kts | 184° |
| 2026-05-05 14:49 | 73.12545 | 14.34134 | 34892 ft | 464 kts | 184° |
| 2026-05-05 14:49 | 73.06149 | 14.32285 | 34897 ft | 465 kts | 184° |
| 2026-05-05 14:50 | 72.99700 | 14.30440 | 34899 ft | 465 kts | 183° |
| 2026-05-05 14:50 | 72.93245 | 14.28615 | 34886 ft | 466 kts | 183° |
| 2026-05-05 14:51 | 72.87833 | 14.27097 | 34888 ft | 465 kts | 184° |
| 2026-05-05 14:51 | 72.81426 | 14.25312 | 34881 ft | 465 kts | 183° |
| 2026-05-05 14:52 | 72.74979 | 14.23523 | 34868 ft | 465 kts | 183° |
| 2026-05-05 14:52 | 72.68542 | 14.21750 | 34870 ft | 464 kts | 184° |
| 2026-05-05 14:53 | 72.62108 | 14.19987 | 34868 ft | 464 kts | 183° |
| 2026-05-05 14:53 | 72.55677 | 14.18237 | 34869 ft | 464 kts | 183° |
| 2026-05-05 14:54 | 72.49241 | 14.16497 | 34876 ft | 464 kts | 183° |
| 2026-05-05 14:54 | 72.42804 | 14.14774 | 34851 ft | 464 kts | 184° |
| 2026-05-05 14:55 | 72.36355 | 14.13060 | 34844 ft | 465 kts | 183° |
| 2026-05-05 14:55 | 72.29908 | 14.11360 | 34830 ft | 465 kts | 183° |
| 2026-05-05 14:56 | 72.23458 | 14.09669 | 34837 ft | 465 kts | 183° |
| 2026-05-05 14:56 | 72.17007 | 14.07989 | 34840 ft | 465 kts | 184° |
| 2026-05-05 14:57 | 72.10565 | 14.06318 | 34837 ft | 464 kts | 183° |
| 2026-05-05 14:57 | 72.04122 | 14.04658 | 34842 ft | 464 kts | 183° |
| 2026-05-05 14:58 | 71.97681 | 14.03013 | 34825 ft | 464 kts | 184° |
| 2026-05-05 14:58 | 71.91248 | 14.01385 | 34819 ft | 464 kts | 183° |
| 2026-05-05 14:59 | 71.84817 | 13.99773 | 34812 ft | 464 kts | 183° |
| 2026-05-05 14:59 | 71.78431 | 13.98182 | 34809 ft | 463 kts | 183° |
| 2026-05-05 15:00 | 71.73048 | 13.96845 | 34813 ft | 463 kts | 183° |
| 2026-05-05 15:00 | 71.65582 | 13.95006 | 34822 ft | 463 kts | 184° |
| 2026-05-05 15:01 | 71.59152 | 13.93432 | 34804 ft | 463 kts | 184° |
| 2026-05-05 15:01 | 71.52728 | 13.91871 | 34801 ft | 463 kts | 184° |
| 2026-05-05 15:02 | 71.46308 | 13.90321 | 34786 ft | 462 kts | 184° |
| 2026-05-05 15:02 | 71.39896 | 13.88782 | 34781 ft | 462 kts | 184° |
| 2026-05-05 15:03 | 71.33496 | 13.87258 | 34783 ft | 461 kts | 184° |
| 2026-05-05 15:03 | 71.27106 | 13.85745 | 34776 ft | 460 kts | 184° |
| 2026-05-05 15:04 | 71.20720 | 13.84243 | 34783 ft | 460 kts | 184° |
| 2026-05-05 15:04 | 71.14340 | 13.82754 | 34784 ft | 459 kts | 184° |
| 2026-05-05 15:05 | 71.04772 | 13.80537 | 34772 ft | 460 kts | 184° |
| 2026-05-05 15:06 | 70.98388 | 13.79070 | 34773 ft | 460 kts | 184° |
| 2026-05-05 15:06 | 70.91998 | 13.77611 | 34765 ft | 460 kts | 184° |
| 2026-05-05 15:07 | 70.85612 | 13.76163 | 34769 ft | 460 kts | 184° |
| 2026-05-05 15:07 | 70.79231 | 13.74725 | 34756 ft | 460 kts | 184° |
| 2026-05-05 15:08 | 70.72855 | 13.73297 | 34752 ft | 459 kts | 184° |
| 2026-05-05 15:08 | 70.66528 | 13.71889 | 34755 ft | 459 kts | 184° |
| 2026-05-05 15:09 | 70.60162 | 13.70481 | 34746 ft | 458 kts | 184° |
| 2026-05-05 15:09 | 70.53800 | 13.69084 | 34753 ft | 458 kts | 184° |
| 2026-05-05 15:10 | 70.47436 | 13.67694 | 34753 ft | 458 kts | 184° |
| 2026-05-05 15:10 | 70.41074 | 13.66314 | 34751 ft | 459 kts | 184° |
| 2026-05-05 15:11 | 70.34700 | 13.64939 | 34742 ft | 459 kts | 184° |
| 2026-05-05 15:11 | 70.28327 | 13.63574 | 34735 ft | 459 kts | 184° |
| 2026-05-05 15:12 | 70.21958 | 13.62217 | 34732 ft | 459 kts | 184° |
| 2026-05-05 15:12 | 70.15590 | 13.60870 | 34735 ft | 458 kts | 184° |
| 2026-05-05 15:13 | 70.09231 | 13.59532 | 34735 ft | 458 kts | 184° |
| 2026-05-05 15:13 | 70.02873 | 13.58203 | 34724 ft | 458 kts | 184° |
| 2026-05-05 15:14 | 69.96516 | 13.56883 | 34725 ft | 458 kts | 184° |
| 2026-05-05 15:14 | 69.90165 | 13.55571 | 34717 ft | 457 kts | 184° |
| 2026-05-05 15:15 | 69.83816 | 13.54268 | 34717 ft | 457 kts | 184° |
| 2026-05-05 15:15 | 69.77470 | 13.52973 | 34711 ft | 457 kts | 184° |
| 2026-05-05 15:16 | 69.71121 | 13.51685 | 34714 ft | 457 kts | 184° |
| 2026-05-05 15:16 | 69.64777 | 13.50407 | 34712 ft | 457 kts | 184° |
| 2026-05-05 15:17 | 69.58433 | 13.49136 | 34715 ft | 457 kts | 184° |
| 2026-05-05 15:17 | 69.52093 | 13.47872 | 34709 ft | 456 kts | 184° |
| 2026-05-05 15:18 | 69.45764 | 13.46619 | 34702 ft | 456 kts | 184° |
| 2026-05-05 15:18 | 69.39481 | 13.45382 | 34697 ft | 455 kts | 185° |
| 2026-05-05 15:19 | 69.33121 | 13.44136 | 34702 ft | 455 kts | 184° |
| 2026-05-05 15:19 | 69.26823 | 13.42489 | 34695 ft | 454 kts | 187° |
| 2026-05-05 15:20 | 69.20559 | 13.40232 | 34687 ft | 454 kts | 188° |
| 2026-05-05 15:20 | 69.14293 | 13.37943 | 34693 ft | 454 kts | 188° |
| 2026-05-05 15:21 | 69.08074 | 13.35759 | 34692 ft | 454 kts | 188° |
| 2026-05-05 15:21 | 69.01803 | 13.33614 | 34695 ft | 454 kts | 187° |
| 2026-05-05 15:22 | 68.95533 | 13.31495 | 34690 ft | 454 kts | 187° |
| 2026-05-05 15:22 | 68.89257 | 13.29387 | 34690 ft | 454 kts | 187° |
| 2026-05-05 15:23 | 68.82979 | 13.27288 | 34689 ft | 454 kts | 187° |
| 2026-05-05 15:23 | 68.76696 | 13.25199 | 34686 ft | 455 kts | 187° |
| 2026-05-05 15:24 | 68.70400 | 13.23116 | 34773 ft | 458 kts | 187° |
| 2026-05-05 15:24 | 68.67237 | 13.22074 | 34929 ft | 459 kts | 187° |
| 2026-05-05 15:24 | 68.64057 | 13.21027 | 35066 ft | 460 kts | 187° |
| 2026-05-05 15:24 | 68.60881 | 13.19987 | 35279 ft | 460 kts | 188° |
| 2026-05-05 15:25 | 68.57707 | 13.18950 | 35492 ft | 459 kts | 188° |
| 2026-05-05 15:25 | 68.54530 | 13.17916 | 35659 ft | 460 kts | 187° |
| 2026-05-05 15:25 | 68.51352 | 13.16885 | 35841 ft | 460 kts | 188° |
| 2026-05-05 15:25 | 68.48175 | 13.15857 | 36023 ft | 460 kts | 187° |
| 2026-05-05 15:26 | 68.44997 | 13.14830 | 36170 ft | 461 kts | 188° |
| 2026-05-05 15:26 | 68.41816 | 13.13805 | 36347 ft | 460 kts | 188° |
| 2026-05-05 15:26 | 68.38638 | 13.12786 | 36547 ft | 459 kts | 187° |
| 2026-05-05 15:26 | 68.35469 | 13.11774 | 36679 ft | 459 kts | 188° |
| 2026-05-05 15:27 | 68.32290 | 13.10756 | 36665 ft | 461 kts | 188° |
| 2026-05-05 15:27 | 68.25917 | 13.08727 | 36677 ft | 461 kts | 188° |
| 2026-05-05 15:28 | 68.19552 | 13.06716 | 36672 ft | 460 kts | 187° |
| 2026-05-05 15:28 | 68.13194 | 13.04721 | 36673 ft | 460 kts | 187° |
| 2026-05-05 15:29 | 68.06843 | 13.02736 | 36671 ft | 459 kts | 187° |
| 2026-05-05 15:29 | 68.00491 | 13.00768 | 36666 ft | 459 kts | 188° |
| 2026-05-05 15:30 | 67.94141 | 12.98804 | 36655 ft | 459 kts | 188° |
| 2026-05-05 15:30 | 67.87841 | 12.96864 | 36652 ft | 458 kts | 188° |
| 2026-05-05 15:31 | 67.81509 | 12.94927 | 36649 ft | 458 kts | 188° |
| 2026-05-05 15:31 | 67.75177 | 12.93002 | 36640 ft | 458 kts | 188° |
| 2026-05-05 15:32 | 67.68852 | 12.91087 | 36637 ft | 458 kts | 188° |
| 2026-05-05 15:32 | 67.62525 | 12.89183 | 36635 ft | 457 kts | 188° |
| 2026-05-05 15:33 | 67.56205 | 12.87292 | 36639 ft | 457 kts | 188° |
| 2026-05-05 15:33 | 67.49880 | 12.85410 | 36660 ft | 457 kts | 188° |
| 2026-05-05 15:34 | 67.43554 | 12.83537 | 36661 ft | 458 kts | 188° |
| 2026-05-05 15:34 | 67.37228 | 12.81674 | 36654 ft | 458 kts | 187° |
| 2026-05-05 15:35 | 67.30896 | 12.79819 | 36655 ft | 458 kts | 187° |
| 2026-05-05 15:35 | 67.24560 | 12.77974 | 36648 ft | 458 kts | 188° |
| 2026-05-05 15:36 | 67.18224 | 12.76138 | 36648 ft | 458 kts | 187° |
| 2026-05-05 15:36 | 67.11884 | 12.74310 | 36644 ft | 459 kts | 187° |
| 2026-05-05 15:37 | 67.05582 | 12.72503 | 36642 ft | 459 kts | 188° |
| 2026-05-05 15:37 | 66.99238 | 12.70692 | 36649 ft | 458 kts | 188° |
| 2026-05-05 15:38 | 66.92901 | 12.68895 | 36643 ft | 458 kts | 189° |
| 2026-05-05 15:38 | 66.86575 | 12.67105 | 36643 ft | 457 kts | 188° |
| 2026-05-05 15:39 | 66.80256 | 12.65325 | 36638 ft | 457 kts | 189° |
| 2026-05-05 15:39 | 66.73949 | 12.63565 | 36637 ft | 456 kts | 189° |
| 2026-05-05 15:40 | 66.68711 | 12.62113 | 36634 ft | 455 kts | 189° |
| 2026-05-05 15:40 | 66.62421 | 12.60373 | 36648 ft | 454 kts | 189° |
| 2026-05-05 15:41 | 66.56144 | 12.58645 | 36652 ft | 454 kts | 188° |
| 2026-05-05 15:41 | 66.49862 | 12.56928 | 36650 ft | 454 kts | 189° |
| 2026-05-05 15:42 | 66.43582 | 12.55220 | 36649 ft | 454 kts | 189° |
| 2026-05-05 15:42 | 66.37294 | 12.53509 | 36648 ft | 455 kts | 188° |
| 2026-05-05 15:43 | 66.31008 | 12.51814 | 36659 ft | 455 kts | 189° |
| 2026-05-05 15:43 | 66.24714 | 12.50127 | 36657 ft | 455 kts | 188° |
| 2026-05-05 15:44 | 66.18417 | 12.48450 | 36678 ft | 455 kts | 189° |
| 2026-05-05 15:44 | 66.12108 | 12.46772 | 36683 ft | 456 kts | 189° |
| 2026-05-05 15:45 | 66.05796 | 12.45102 | 36737 ft | 456 kts | 188° |
| 2026-05-05 15:45 | 65.99526 | 12.43447 | 36752 ft | 456 kts | 188° |
| 2026-05-05 15:46 | 65.93208 | 12.41790 | 36746 ft | 456 kts | 188° |
| 2026-05-05 15:46 | 65.86901 | 12.40150 | 36759 ft | 456 kts | 189° |
| 2026-05-05 15:47 | 65.80592 | 12.38510 | 36735 ft | 456 kts | 189° |
| 2026-05-05 15:47 | 65.74287 | 12.36886 | 36719 ft | 455 kts | 188° |
| 2026-05-05 15:48 | 65.67987 | 12.35271 | 36758 ft | 455 kts | 188° |
| 2026-05-05 15:48 | 65.61690 | 12.33662 | 36769 ft | 455 kts | 188° |
| 2026-05-05 15:49 | 65.55399 | 12.32062 | 36772 ft | 455 kts | 188° |
| 2026-05-05 15:49 | 65.49100 | 12.30467 | 36778 ft | 455 kts | 188° |
| 2026-05-05 15:50 | 65.42804 | 12.28883 | 36758 ft | 455 kts | 189° |
| 2026-05-05 15:50 | 65.36499 | 12.27302 | 36761 ft | 456 kts | 189° |
| 2026-05-05 15:51 | 65.30191 | 12.25730 | 36765 ft | 456 kts | 189° |
| 2026-05-05 15:51 | 65.23884 | 12.24168 | 36778 ft | 456 kts | 188° |
| 2026-05-05 15:52 | 65.17571 | 12.22607 | 36772 ft | 456 kts | 189° |
| 2026-05-05 15:52 | 65.11260 | 12.21055 | 36779 ft | 456 kts | 188° |
| 2026-05-05 15:53 | 65.04949 | 12.19511 | 36780 ft | 456 kts | 188° |
| 2026-05-05 15:53 | 64.98639 | 12.17974 | 36795 ft | 456 kts | 188° |
| 2026-05-05 15:54 | 64.92330 | 12.16446 | 36794 ft | 456 kts | 188° |
| 2026-05-05 15:54 | 64.86019 | 12.14924 | 36801 ft | 456 kts | 188° |
| 2026-05-05 15:55 | 64.79707 | 12.13409 | 36781 ft | 456 kts | 188° |
| 2026-05-05 15:55 | 64.73397 | 12.11902 | 36805 ft | 456 kts | 189° |
| 2026-05-05 15:56 | 64.67096 | 12.10404 | 36818 ft | 455 kts | 189° |
| 2026-05-05 15:56 | 64.60845 | 12.08925 | 36834 ft | 455 kts | 188° |
| 2026-05-05 15:57 | 64.54549 | 12.07441 | 36823 ft | 454 kts | 189° |
| 2026-05-05 15:57 | 64.48259 | 12.05966 | 36824 ft | 454 kts | 189° |
| 2026-05-05 15:58 | 64.41975 | 12.04499 | 36826 ft | 454 kts | 189° |
| 2026-05-05 15:58 | 64.35686 | 12.03038 | 36826 ft | 454 kts | 189° |
| 2026-05-05 15:59 | 64.29401 | 12.01585 | 36826 ft | 454 kts | 189° |
| 2026-05-05 15:59 | 64.23116 | 12.00138 | 36830 ft | 454 kts | 189° |
| 2026-05-05 16:00 | 64.16834 | 11.98698 | 36835 ft | 453 kts | 189° |
| 2026-05-05 16:00 | 64.10555 | 11.97266 | 36846 ft | 453 kts | 189° |
| 2026-05-05 16:01 | 64.04279 | 11.95840 | 36852 ft | 453 kts | 189° |
| 2026-05-05 16:01 | 63.97999 | 11.94421 | 36844 ft | 454 kts | 189° |
| 2026-05-05 16:02 | 63.91719 | 11.93008 | 36852 ft | 453 kts | 189° |
| 2026-05-05 16:02 | 63.85442 | 11.91601 | 36838 ft | 453 kts | 189° |
| 2026-05-05 16:03 | 63.79176 | 11.90204 | 36854 ft | 452 kts | 189° |
| 2026-05-05 16:03 | 63.72913 | 11.88813 | 36866 ft | 452 kts | 189° |
| 2026-05-05 16:04 | 63.66654 | 11.87429 | 36868 ft | 452 kts | 189° |
| 2026-05-05 16:04 | 63.60394 | 11.86051 | 36867 ft | 452 kts | 189° |
| 2026-05-05 16:05 | 63.54137 | 11.84680 | 36851 ft | 452 kts | 189° |
| 2026-05-05 16:05 | 63.47881 | 11.83315 | 36873 ft | 452 kts | 189° |
| 2026-05-05 16:06 | 63.41621 | 11.81954 | 36882 ft | 452 kts | 189° |
| 2026-05-05 16:06 | 63.35398 | 11.80622 | 36883 ft | 453 kts | 188° |
| 2026-05-05 16:07 | 63.29065 | 11.80800 | 36890 ft | 456 kts | 180° |
| 2026-05-05 16:07 | 63.22723 | 11.81624 | 36875 ft | 457 kts | 180° |
| 2026-05-05 16:08 | 63.16381 | 11.82401 | 36889 ft | 457 kts | 181° |
| 2026-05-05 16:08 | 63.10034 | 11.83090 | 36891 ft | 457 kts | 181° |
| 2026-05-05 16:09 | 63.03676 | 11.83743 | 36896 ft | 457 kts | 181° |
| 2026-05-05 16:09 | 62.97316 | 11.84388 | 36887 ft | 458 kts | 181° |
| 2026-05-05 16:10 | 62.90956 | 11.85034 | 36877 ft | 457 kts | 181° |
| 2026-05-05 16:10 | 62.84599 | 11.85679 | 36883 ft | 457 kts | 181° |
| 2026-05-05 16:11 | 62.78250 | 11.86320 | 36887 ft | 457 kts | 181° |
| 2026-05-05 16:12 | 62.65554 | 11.87593 | 36886 ft | 457 kts | 181° |
| 2026-05-05 16:13 | 62.49698 | 11.89169 | 36874 ft | 456 kts | 182° |
| 2026-05-05 16:13 | 62.43403 | 11.89790 | 36876 ft | 456 kts | 182° |
| 2026-05-05 16:14 | 62.30744 | 11.91030 | 36845 ft | 455 kts | 182° |
| 2026-05-05 16:15 | 62.18113 | 11.92258 | 36879 ft | 454 kts | 182° |
| 2026-05-05 16:16 | 62.05482 | 11.93474 | 36868 ft | 455 kts | 182° |
| 2026-05-05 16:17 | 61.96008 | 11.94978 | 36855 ft | 453 kts | 178° |
| 2026-05-05 16:18 | 61.86567 | 11.97811 | 36870 ft | 462 kts | 177° |
| 2026-05-05 16:19 | 61.76925 | 12.00634 | 36867 ft | 471 kts | 178° |
| 2026-05-05 16:19 | 61.67107 | 12.03433 | 36840 ft | 477 kts | 178° |
| 2026-05-05 16:20 | 61.54096 | 12.07131 | 36156 ft | 455 kts | 178° |
| 2026-05-05 16:21 | 61.47874 | 12.08882 | 34734 ft | 448 kts | 179° |
| 2026-05-05 16:22 | 61.38792 | 12.11422 | 32898 ft | 429 kts | 180° |
| 2026-05-05 16:22 | 61.32965 | 12.13047 | 31613 ft | 416 kts | 181° |
| 2026-05-05 16:23 | 61.27290 | 12.14617 | 30376 ft | 407 kts | 182° |
| 2026-05-05 16:23 | 61.24493 | 12.15388 | 29756 ft | 403 kts | 183° |
| 2026-05-05 16:23 | 61.19010 | 12.16898 | 28321 ft | 392 kts | 183° |
| 2026-05-05 16:24 | 61.16318 | 12.17637 | 27635 ft | 388 kts | 183° |
| 2026-05-05 16:24 | 61.13658 | 12.18365 | 26972 ft | 384 kts | 183° |
| 2026-05-05 16:24 | 61.08420 | 12.19793 | 25718 ft | 375 kts | 182° |
| 2026-05-05 16:25 | 61.05845 | 12.20496 | 25114 ft | 372 kts | 182° |
| 2026-05-05 16:25 | 61.00778 | 12.21649 | 23913 ft | 354 kts | 193° |
| 2026-05-05 16:25 | 60.98416 | 12.21036 | 23315 ft | 343 kts | 199° |
| 2026-05-05 16:26 | 60.93725 | 12.19373 | 22084 ft | 341 kts | 198° |
| 2026-05-05 16:26 | 60.88914 | 12.17734 | 21335 ft | 361 kts | 196° |
| 2026-05-05 16:27 | 60.86409 | 12.16923 | 20932 ft | 366 kts | 195° |
| 2026-05-05 16:27 | 60.83897 | 12.16131 | 20555 ft | 365 kts | 195° |
| 2026-05-05 16:27 | 60.81396 | 12.15348 | 20172 ft | 363 kts | 194° |
| 2026-05-05 16:27 | 60.78906 | 12.14567 | 19801 ft | 361 kts | 194° |
| 2026-05-05 16:28 | 60.76428 | 12.13789 | 19405 ft | 359 kts | 196° |
| 2026-05-05 16:28 | 60.73948 | 12.13010 | 18912 ft | 362 kts | 196° |
| 2026-05-05 16:28 | 60.71463 | 12.12233 | 18535 ft | 361 kts | 195° |
| 2026-05-05 16:28 | 60.69823 | 12.11721 | 18288 ft | 360 kts | 195° |
| 2026-05-05 16:29 | 60.67348 | 12.10949 | 17871 ft | 359 kts | 194° |
| 2026-05-05 16:29 | 60.64884 | 12.10184 | 17463 ft | 357 kts | 194° |
| 2026-05-05 16:29 | 60.62436 | 12.09426 | 17107 ft | 354 kts | 194° |
| 2026-05-05 16:29 | 60.60006 | 12.08674 | 16736 ft | 352 kts | 194° |
| 2026-05-05 16:30 | 60.57597 | 12.07929 | 16376 ft | 349 kts | 194° |
| 2026-05-05 16:30 | 60.55202 | 12.07186 | 16032 ft | 347 kts | 193° |
| 2026-05-05 16:30 | 60.52825 | 12.06449 | 15677 ft | 344 kts | 194° |
| 2026-05-05 16:30 | 60.50547 | 12.05232 | 15389 ft | 334 kts | 207° |
| 2026-05-05 16:31 | 60.48566 | 12.02967 | 15110 ft | 323 kts | 221° |
| 2026-05-05 16:31 | 60.46831 | 12.00121 | 14856 ft | 321 kts | 224° |
| 2026-05-05 16:31 | 60.45107 | 11.97207 | 14602 ft | 323 kts | 224° |
| 2026-05-05 16:31 | 60.43376 | 11.94291 | 14338 ft | 325 kts | 224° |
| 2026-05-05 16:32 | 60.41635 | 11.91372 | 14077 ft | 325 kts | 223° |
| 2026-05-05 16:32 | 60.39894 | 11.88468 | 13811 ft | 323 kts | 223° |
| 2026-05-05 16:32 | 60.38158 | 11.85581 | 13477 ft | 323 kts | 223° |
| 2026-05-05 16:32 | 60.36420 | 11.82698 | 13102 ft | 323 kts | 223° |
| 2026-05-05 16:33 | 60.34685 | 11.79828 | 12759 ft | 322 kts | 223° |
| 2026-05-05 16:33 | 60.32951 | 11.76963 | 12403 ft | 322 kts | 223° |
| 2026-05-05 16:33 | 60.31217 | 11.74105 | 12052 ft | 321 kts | 223° |
| 2026-05-05 16:33 | 60.29493 | 11.71269 | 11696 ft | 317 kts | 222° |
| 2026-05-05 16:34 | 60.27793 | 11.68487 | 11372 ft | 312 kts | 222° |
| 2026-05-05 16:34 | 60.26119 | 11.65742 | 11026 ft | 309 kts | 222° |
| 2026-05-05 16:34 | 60.24458 | 11.63015 | 10691 ft | 307 kts | 222° |
| 2026-05-05 16:34 | 60.22806 | 11.60308 | 10345 ft | 306 kts | 223° |
| 2026-05-05 16:35 | 60.21158 | 11.57610 | 10034 ft | 304 kts | 223° |
| 2026-05-05 16:35 | 60.19540 | 11.54967 | 9912 ft | 295 kts | 223° |
| 2026-05-05 16:35 | 60.17965 | 11.52401 | 9638 ft | 290 kts | 223° |
| 2026-05-05 16:35 | 60.16406 | 11.49864 | 9320 ft | 287 kts | 223° |
| 2026-05-05 16:36 | 60.14865 | 11.47355 | 9008 ft | 284 kts | 223° |
| 2026-05-05 16:36 | 60.13359 | 11.44907 | 8706 ft | 281 kts | 223° |
| 2026-05-05 16:36 | 60.11846 | 11.42451 | 8413 ft | 279 kts | 222° |
| 2026-05-05 16:36 | 60.10340 | 11.40009 | 8117 ft | 278 kts | 222° |
| 2026-05-05 16:37 | 60.08838 | 11.37576 | 7808 ft | 277 kts | 222° |
| 2026-05-05 16:37 | 60.07331 | 11.35138 | 7391 ft | 280 kts | 222° |
| 2026-05-05 16:37 | 60.05827 | 11.32708 | 7094 ft | 273 kts | 222° |
| 2026-05-05 16:37 | 60.04380 | 11.30377 | 6897 ft | 262 kts | 223° |
| 2026-05-05 16:38 | 60.02985 | 11.28131 | 6676 ft | 253 kts | 222° |
| 2026-05-05 16:38 | 60.01634 | 11.25958 | 6459 ft | 245 kts | 223° |
| 2026-05-05 16:38 | 60.00329 | 11.23856 | 6216 ft | 238 kts | 222° |
| 2026-05-05 16:38 | 59.99058 | 11.21814 | 6012 ft | 231 kts | 223° |
| 2026-05-05 16:39 | 59.97823 | 11.19836 | 5923 ft | 223 kts | 224° |
| 2026-05-05 16:39 | 59.96603 | 11.17881 | 5829 ft | 227 kts | 224° |
| 2026-05-05 16:39 | 59.95361 | 11.15890 | 5738 ft | 231 kts | 223° |
| 2026-05-05 16:39 | 59.94283 | 11.13580 | 5605 ft | 226 kts | 249° |
| 2026-05-05 16:40 | 59.94011 | 11.10573 | 5443 ft | 224 kts | 278° |
| 2026-05-05 16:40 | 59.94525 | 11.07643 | 5190 ft | 226 kts | 303° |
| 2026-05-05 16:40 | 59.95561 | 11.05298 | 4947 ft | 225 kts | 314° |
| 2026-05-05 16:40 | 59.96661 | 11.03115 | 4672 ft | 220 kts | 313° |
| 2026-05-05 16:41 | 59.97740 | 11.01011 | 4403 ft | 214 kts | 318° |
| 2026-05-05 16:41 | 59.99073 | 10.99903 | 4167 ft | 211 kts | 356° |
| 2026-05-05 16:41 | 60.00463 | 11.00721 | 4098 ft | 208 kts | 19° |
| 2026-05-05 16:41 | 60.01824 | 11.01656 | 3998 ft | 208 kts | 12° |
| 2026-05-05 16:42 | 60.03239 | 11.02450 | 3702 ft | 213 kts | 11° |
| 2026-05-05 16:42 | 60.04644 | 11.03252 | 3422 ft | 206 kts | 11° |
| 2026-05-05 16:42 | 60.05996 | 11.04036 | 3149 ft | 199 kts | 11° |
| 2026-05-05 16:42 | 60.07309 | 11.04805 | 2882 ft | 194 kts | 11° |
| 2026-05-05 16:43 | 60.08575 | 11.05540 | 2641 ft | 185 kts | 12° |
| 2026-05-05 16:43 | 60.09791 | 11.06246 | 2368 ft | 178 kts | 11° |
| 2026-05-05 16:43 | 60.10947 | 11.06919 | 2122 ft | 169 kts | 11° |
| 2026-05-05 16:43 | 60.12043 | 11.07554 | 1901 ft | 159 kts | 12° |
| 2026-05-05 16:44 | 60.13080 | 11.08161 | 1719 ft | 149 kts | 9° |
| 2026-05-05 16:44 | 60.14102 | 11.08748 | 1443 ft | 156 kts | 11° |
| 2026-05-05 16:44 | 60.15139 | 11.09363 | 1253 ft | 154 kts | 11° |
| 2026-05-05 16:44 | 60.16174 | 11.09986 | 1020 ft | 156 kts | 12° |
| 2026-05-05 16:45 | 60.17236 | 11.10593 | 800 ft | 159 kts | 12° |
| 2026-05-05 16:45 | 60.18255 | 11.11165 | 684 ft | 145 kts | 13° |
| 2026-05-05 16:45 | 60.19043 | 11.11628 | 686 ft | 87 kts | 16° |
| 2026-05-05 16:45 | 60.19390 | 11.11825 | 688 ft | 39 kts | 15° |
| 2026-05-05 16:46 | 60.19611 | 11.11890 | 689 ft | 26 kts | 352° |
| 2026-05-05 16:46 | 60.19707 | 11.11732 | 682 ft | 10 kts | 283° |
| 2026-05-05 16:46 | 60.19710 | 11.11709 | 680 ft | 0 kts | 284° |
| 2026-05-05 16:47 | 60.19710 | 11.11708 | 680 ft | 1 kts | 284° |
| 2026-05-05 16:48 | 60.19716 | 11.11665 | 684 ft | 6 kts | 284° |
| 2026-05-05 16:48 | 60.19730 | 11.11527 | 685 ft | 14 kts | 271° |
| 2026-05-05 16:48 | 60.19649 | 11.11413 | 684 ft | 18 kts | 196° |
| 2026-05-05 16:48 | 60.19529 | 11.11343 | 684 ft | 18 kts | 195° |
| 2026-05-05 16:49 | 60.19406 | 11.11272 | 683 ft | 18 kts | 195° |
| 2026-05-05 16:49 | 60.19289 | 11.11205 | 682 ft | 15 kts | 196° |
| 2026-05-05 16:49 | 60.19214 | 11.11161 | 682 ft | 4 kts | 196° |
| 2026-05-05 16:49 | 60.19204 | 11.11155 | 678 ft | 2 kts | 196° |
| 2026-05-05 16:50 | 60.19187 | 11.11139 | 679 ft | 4 kts | 214° |
| 2026-05-05 16:50 | 60.19174 | 11.11074 | 682 ft | 7 kts | 274° |
| 2026-05-05 16:50 | 60.19190 | 11.10958 | 682 ft | 10 kts | 286° |
| 2026-05-05 16:50 | 60.19211 | 11.10812 | 681 ft | 10 kts | 286° |
| 2026-05-05 16:51 | 60.19221 | 11.10743 | 679 ft | 4 kts | 286° |
| 2026-05-05 16:51 | 60.19243 | 11.10708 | 682 ft | 4 kts | 337° |
| 2026-05-05 16:51 | 60.19270 | 11.10686 | 682 ft | 4 kts | 338° |
| 2026-05-05 16:51 | 60.19283 | 11.10676 | 680 ft | 1 kts | 338° |
| 2026-05-05 16:52 | 60.19287 | 11.10672 | 680 ft | 1 kts | 338° |
| 2026-05-05 16:52 | 60.19288 | 11.10672 | 681 ft | 0 kts | 338° |